ponad 10 lat razem

Lubliniec Info wiadomości z miasta Lubliniec i powiatu w jednym miejscu Wyszukiwarka newsów:
Wtorek, 02 wrzesień 17 °C, 9 km/h , więcej imieniny: Stefana, Juliana
dodaj firmę

Kategorie

Twój schowek

brak ogłoszeń

To ogłoszenie nie jest już aktywne ;(.

Ostatnio dodane ogłoszenia pokaż wszystkie

2014-09-02 00:06:38 Kupię mieszkanie w bloku kontakt: 889807093 nr: 38238
2014-09-01 22:39:52 Bankier Klienta kontakt: Tomasz Dąbrowski nr: 38120
2014-09-01 22:30:46 CZYSZCZENIE DYWANÓW WYKŁADZIN kontakt: +48533757610 nr: 38442
2014-09-01 21:46:38 Sprzedam podręczniki do klasy 1 gimnazjum kontakt: 888-590-943 nr: 38404
2014-09-01 21:46:11 Sprzedam podręczniki do klasy II GIMNAZJUM kontakt: 888-590-943 nr: 38441
2014-09-01 21:35:05 Sprzedam podręczniki z matematyki do klasy 3 gimnazjum kontakt: 888-590-943 nr: 38405
2014-09-01 21:12:11 Sprzedam mieszkanie 56m2 ul. Św. ANNY kontakt: +48662252247 nr: 38440
2014-09-01 16:28:33 Sprzedam Gotową Spółkę Giełda Spółek z o.o. Gotowe Spółki - Zakładanie/Rejestaracja kontakt: +48507728528 nr: 38439
2014-09-01 15:16:15 Praca od zaraz---> Barman/Barmanka kontakt: +48343470859 nr: 38438
2014-09-01 15:02:10 Oferta Urzędu Pracy: Kierowca kat. C kontakt: Alfred Hebda, 600 240 829 nr: 38437
2014-09-01 14:47:52 sprzedam sukienke + zakiet+buty kontakt: +48721084485 nr: 38436
2014-09-01 13:44:45 WYPRZEDAŻ!!! kontakt: +48782978161 nr: 35333
2014-09-01 13:28:17 Praca w różnych rejonach Niemiec- Opiekun Osób Starszych kontakt: 881-713-200 nr: 38435
2014-09-01 12:26:46 Dam pracę kontakt: nr: 38434
2014-09-01 11:50:47 Praca na produkcji kontakt: +48887024232 nr: 38433
2014-09-01 10:31:47 odkupie podręcznik z języka angielskiego kontakt: +48503550342 nr: 38431
2014-09-01 08:28:02 Fasolka kidney fasola w sosie chili = 1370 x 4,45 kg = 57500 zł za 1720 zł !!! kontakt: 660-051-274 nr: 38281
2014-09-01 07:25:35 Zatrudnimy pracowników do dociepleń! Od 12zł/h! kontakt: +48791608559 nr: 38429
2014-08-31 22:53:48 Przyjmę Ziemie lubliniec kontakt: 48691875934 nr: 38427
2014-08-31 22:41:00 Szukam Pracy/stażu kontakt: +48728769322 nr: 38426
2014-08-31 22:34:23 Szukam Pracy kontakt: +48883309385 nr: 38425
2014-08-31 21:22:36 ZATRUDNIMY PRACOWNIKA kontakt: 508-081-450 nr: 38424
2014-08-31 21:22:19 szukam pracy kontakt: +48691787869 nr: 38423
2014-08-31 21:05:04 Telewizor Thomson 32HT5453 LED TV kontakt: nr: 38422
2014-08-31 20:59:00 Play Station 3 PS3 Slim 160GB używany + Gry stan IDEALNY kontakt: nr: 38421
2014-08-31 18:52:41 Sprzedam książki do gimnazjum kontakt: 694760594 nr: 37349
2014-08-31 18:35:36 gasior na wino kontakt: wol2@op.pl nr: 38420
2014-08-31 17:31:57 Zdjęcia, sesja zdjęciowa kontakt: nr: 38419
2014-08-31 15:34:03 Dam pracę kontakt: CV proszę na mail: tola@tola.biz.pl nr: 38051
2014-08-31 14:21:22 Sprzedam akwarium kontakt: +48661055338 nr: 38418
2014-08-31 14:00:34 Sprzedam Gotową Spółkę Giełda Spółek z o.o. Gotowe Spółki - Zakładanie/Rejestaracja kontakt: +48507728528 nr: 38417
2014-08-31 13:11:35 telefon SAMSUNG GALAXY ACE GT-S5830I kontakt: +48880262816 nr: 38416
2014-08-31 12:12:27 Buldog Amerykanski kontakt: +48517810811 nr: 38415
2014-08-31 09:11:33 Radio do samochodu kontakt: wol2@op.pl nr: 38413
2014-08-31 08:47:04 Nagrywarka dvd HR 753 dysk 160GB kontakt: wol2@op.pl nr: 38412
2014-08-30 23:28:56 sprzedam golfa 2 kontakt: +48607450815 nr: 38411
2014-08-30 18:46:48 Sprzedam podręczniki do j.polskiego - szkoła średnia kontakt: 888-590-943 nr: 38409
2014-08-30 18:41:15 Sprzedam pomoce naukowe do szkoły podstawowej kontakt: 888-590-943 nr: 38408
2014-08-30 18:38:09 kombinezon narciarski kontakt: nr: 38407
2014-08-30 18:20:02 PILNIE SZUKAM PRACY kontakt: +48661055290 nr: 38406
2014-08-30 17:03:59 Dalia czyszczenie dywanów i chemiczne czyszczenie odzieży kontakt: +48501178793 nr: 38403
2014-08-30 14:46:40 szukam pracy kierowca kat.B kontakt: +48 887 655 939 nr: 38401
2014-08-30 14:05:44 Sprzedam!!! OKAZJA! kontakt: +48883309385 nr: 38400
2014-08-30 13:18:09 barmanka pizzeria kontakt: nr: 38399
2014-08-30 13:04:56 ZLECE WYMIANE RYNIEN Koszęcin kontakt: +48535566491 nr: 38398
Copyright (c) 2001-2014 Grupa LubliniecInfo. Wszystkie prawa zastrzeżone.
Portal Lubliniec Info - najnowsze wiadomości z Powiatu Lublinieckiego:
Lubliniec, Boronów, Ciasna, Herby, Koszęcin, Kochanowice, Pawonków Woźniki
praca, ogłoszenia, zdjęcia, forum, imprezy, kino, reklama, wywiady, firmy, dyżury aptek, sport, koncerty

stat4u